createdAt,value
2022-12-22T00:02:20.818Z,24.25
2022-12-22T00:05:08.423Z,25.40
2022-12-22T00:07:53.875Z,25.63
2022-12-22T00:10:39.325Z,25.55
2022-12-22T00:13:28.199Z,27.15
2022-12-22T00:16:13.668Z,26.02
2022-12-22T00:18:59.527Z,27.60
2022-12-22T00:21:49.136Z,25.42
2022-12-22T00:24:34.845Z,26.38
2022-12-22T00:27:20.711Z,27.23
2022-12-22T00:32:54.998Z,25.33
2022-12-22T00:35:43.387Z,27.52
2022-12-22T00:38:37.841Z,25.70
2022-12-22T00:41:24.005Z,26.55
2022-12-22T00:44:09.558Z,25.73
2022-12-22T00:46:57.559Z,25.98
2022-12-22T00:49:45.099Z,26.38
2022-12-22T00:52:30.617Z,26.48
2022-12-22T00:55:16.575Z,26.88
2022-12-22T01:00:48.411Z,26.48
2022-12-22T01:03:34.205Z,28.15
2022-12-22T01:06:21.547Z,26.90
2022-12-22T01:09:07.544Z,26.88
2022-12-22T01:14:39.792Z,25.90
2022-12-22T01:17:25.053Z,26.23
2022-12-22T01:20:10.631Z,26.80
2022-12-22T01:22:56.237Z,28.00
2022-12-22T01:25:41.643Z,27.67
2022-12-22T01:28:34.627Z,27.08
2022-12-22T01:31:39.864Z,26.60
2022-12-22T01:34:27.348Z,25.42
2022-12-22T01:37:13.162Z,27.30
2022-12-22T01:39:58.572Z,32.08
2022-12-22T01:42:45.684Z,31.15
2022-12-22T01:45:43.473Z,33.55
2022-12-22T01:48:37.707Z,32.75
2022-12-22T01:51:29.679Z,30.50
2022-12-22T01:54:16.574Z,29.80
2022-12-22T01:57:03.593Z,26.48
2022-12-22T01:59:49.798Z,29.45
2022-12-22T02:02:37.555Z,29.05
2022-12-22T02:05:25.327Z,28.40
2022-12-22T02:08:22.822Z,29.85
2022-12-22T02:11:17.517Z,32.63
2022-12-22T02:14:27.749Z,32.45
2022-12-22T02:17:40.312Z,36.95
2022-12-22T02:20:31.774Z,31.83
2022-12-22T02:23:47.652Z,29.42
2022-12-22T02:26:46.386Z,29.42
2022-12-22T02:29:35.543Z,28.88
2022-12-22T02:32:21.206Z,27.90
2022-12-22T02:35:06.617Z,28.63
2022-12-22T02:38:39.882Z,32.40
2022-12-22T02:41:38.041Z,29.52
2022-12-22T02:44:35.552Z,30.73
2022-12-22T02:47:32.127Z,30.05
2022-12-22T02:50:27.715Z,29.38
2022-12-22T02:53:14.712Z,29.00
2022-12-22T02:56:00.079Z,30.25
2022-12-22T02:58:46.281Z,28.85
2022-12-22T03:01:31.617Z,24.50
2022-12-22T03:04:17.598Z,25.33
2022-12-22T03:09:48.638Z,26.38
2022-12-22T03:12:34.128Z,27.23
2022-12-22T03:15:19.786Z,28.85
2022-12-22T03:18:05.576Z,27.48
2022-12-22T03:20:51.044Z,27.52
2022-12-22T03:23:36.576Z,29.73
2022-12-22T03:26:03.509Z,28.52
2022-12-22T03:28:30.345Z,28.48
2022-12-22T03:31:00.749Z,32.05
2022-12-22T03:33:29.017Z,28.80
2022-12-22T03:35:56.141Z,33.35
2022-12-22T03:38:23.382Z,31.10
2022-12-22T03:40:50.396Z,31.38
2022-12-22T03:43:37.042Z,33.42
2022-12-22T03:46:16.675Z,32.08
2022-12-22T03:48:44.860Z,30.98
2022-12-22T03:51:11.680Z,32.58
2022-12-22T03:53:38.556Z,32.30
2022-12-22T03:56:07.982Z,32.30
2022-12-22T03:58:35.440Z,32.38
2022-12-22T04:01:11.381Z,32.30
2022-12-22T04:03:38.273Z,33.40
2022-12-22T04:06:05.326Z,35.45
2022-12-22T04:08:32.236Z,34.10
2022-12-22T04:11:17.564Z,33.65
2022-12-22T04:13:44.465Z,32.90
2022-12-22T04:16:11.320Z,33.83
2022-12-22T04:18:38.249Z,35.10
2022-12-22T04:21:05.282Z,33.65
2022-12-22T04:23:32.151Z,33.80
2022-12-22T04:25:59.988Z,35.97
2022-12-22T04:28:26.953Z,32.28
2022-12-22T04:30:53.789Z,35.22
2022-12-22T04:33:20.702Z,33.67
2022-12-22T04:35:47.567Z,34.08
2022-12-22T04:38:14.491Z,34.97
2022-12-22T04:40:41.436Z,34.40
2022-12-22T04:43:08.360Z,36.88
2022-12-22T04:45:35.268Z,35.00
2022-12-22T04:48:02.201Z,37.25
2022-12-22T04:50:29.063Z,36.50
2022-12-22T04:52:55.968Z,34.08
2022-12-22T04:55:22.789Z,37.13
2022-12-22T04:57:49.752Z,32.83
2022-12-22T05:00:17.004Z,33.75
2022-12-22T05:02:43.989Z,32.90
2022-12-22T05:05:11.038Z,34.05
2022-12-22T05:07:37.969Z,32.53
2022-12-22T05:10:05.779Z,34.42
2022-12-22T05:12:51.192Z,34.83
2022-12-22T05:15:18.116Z,34.22
2022-12-22T05:17:44.953Z,36.20
2022-12-22T05:20:11.945Z,34.08
2022-12-22T05:22:38.836Z,35.15
2022-12-22T05:25:07.158Z,34.90
2022-12-22T05:27:34.047Z,34.92
2022-12-22T05:30:01.001Z,34.33
2022-12-22T05:32:28.060Z,34.55
2022-12-22T05:34:55.051Z,38.35
2022-12-22T05:37:21.878Z,41.13
2022-12-22T05:39:48.768Z,44.55
2022-12-22T05:42:35.608Z,36.85
2022-12-22T05:45:15.046Z,34.53
2022-12-22T05:47:43.614Z,30.60
2022-12-22T05:50:13.315Z,31.40
2022-12-22T05:52:41.497Z,28.15
2022-12-22T05:55:09.610Z,27.98
2022-12-22T05:57:36.743Z,25.63
2022-12-22T06:00:06.853Z,15.70
2022-12-22T06:02:42.715Z,13.73
2022-12-22T06:05:12.433Z,10.52
2022-12-22T06:07:39.386Z,9.05
2022-12-22T06:10:11.898Z,9.63
2022-12-22T06:12:40.923Z,9.50
2022-12-22T06:15:10.757Z,9.88
2022-12-22T06:17:43.956Z,11.20
2022-12-22T06:20:12.609Z,12.13
2022-12-22T06:22:39.434Z,11.82
2022-12-22T06:25:06.600Z,10.55
2022-12-22T06:27:33.550Z,14.43
2022-12-22T06:30:00.456Z,15.00
2022-12-22T06:32:27.438Z,14.60
2022-12-22T06:34:54.432Z,16.38
2022-12-22T06:37:21.255Z,15.88
2022-12-22T06:39:48.193Z,17.33
2022-12-22T06:42:33.569Z,17.42
2022-12-22T06:45:00.467Z,17.10
2022-12-22T06:47:27.417Z,17.75
2022-12-22T06:49:54.338Z,16.50
2022-12-22T06:52:21.178Z,18.08
2022-12-22T06:54:48.174Z,17.77
2022-12-22T06:57:15.051Z,20.88
2022-12-22T06:59:42.243Z,20.42
2022-12-22T07:02:11.524Z,22.23
2022-12-22T07:04:38.685Z,17.63
2022-12-22T07:07:05.516Z,20.63
2022-12-22T07:09:32.428Z,24.70
2022-12-22T07:11:59.483Z,21.45
2022-12-22T07:14:26.402Z,23.67
2022-12-22T07:16:53.389Z,23.88
2022-12-22T07:19:20.521Z,23.73
2022-12-22T07:21:48.962Z,20.83
2022-12-22T07:24:23.230Z,23.92
2022-12-22T07:26:50.424Z,23.58
2022-12-22T07:29:17.339Z,21.20
2022-12-22T07:31:44.338Z,26.48
2022-12-22T07:34:12.056Z,23.00
2022-12-22T07:36:38.934Z,22.77
2022-12-22T07:39:05.833Z,22.45
2022-12-22T07:41:51.289Z,17.77
2022-12-22T07:44:18.364Z,21.67
2022-12-22T07:46:45.328Z,22.20
2022-12-22T07:49:30.830Z,23.95
2022-12-22T07:51:58.783Z,19.85
2022-12-22T07:54:26.804Z,22.33
2022-12-22T07:56:55.114Z,19.77
2022-12-22T07:59:22.406Z,22.90
2022-12-22T08:01:49.403Z,22.73
2022-12-22T08:04:17.368Z,26.25
2022-12-22T08:06:45.096Z,30.50
2022-12-22T08:09:15.898Z,31.25
2022-12-22T08:11:42.841Z,26.80
2022-12-22T08:14:09.756Z,28.60
2022-12-22T08:16:37.416Z,28.52
2022-12-22T08:19:04.729Z,27.50
2022-12-22T08:21:31.635Z,27.95
2022-12-22T08:23:58.583Z,29.88
2022-12-22T08:26:36.806Z,23.90
2022-12-22T08:29:12.850Z,24.42
2022-12-22T08:31:41.467Z,24.70
2022-12-22T08:34:12.598Z,24.17
2022-12-22T08:36:47.497Z,25.17
2022-12-22T08:39:16.362Z,27.23
2022-12-22T08:41:52.312Z,27.83
2022-12-22T08:44:25.515Z,25.35
2022-12-22T08:46:53.905Z,22.27
2022-12-22T08:49:21.510Z,23.08
2022-12-22T08:51:49.153Z,22.73
2022-12-22T08:54:16.570Z,27.50
2022-12-22T08:56:44.033Z,31.42
2022-12-22T08:59:11.420Z,35.88
2022-12-22T09:01:42.836Z,32.70
2022-12-22T09:04:12.872Z,32.60
2022-12-22T09:06:41.394Z,34.17
2022-12-22T09:09:10.460Z,36.42
2022-12-22T09:11:37.810Z,33.08
2022-12-22T09:14:05.717Z,33.90
2022-12-22T09:16:33.892Z,41.40
2022-12-22T09:19:01.653Z,39.10
2022-12-22T09:21:29.077Z,34.42
2022-12-22T09:23:57.009Z,38.05
2022-12-22T09:26:25.561Z,38.33
2022-12-22T09:28:53.075Z,41.50
2022-12-22T09:31:21.387Z,41.10
2022-12-22T09:33:48.637Z,39.50
2022-12-22T09:36:18.574Z,40.25
2022-12-22T09:38:48.209Z,39.80
2022-12-22T09:41:23.945Z,41.90
2022-12-22T09:43:51.411Z,38.05
2022-12-22T09:46:25.101Z,38.80
2022-12-22T09:48:53.544Z,37.70
2022-12-22T09:51:26.726Z,34.45
2022-12-22T09:53:59.039Z,32.47
2022-12-22T09:56:27.740Z,33.92
2022-12-22T09:58:55.044Z,32.65
2022-12-22T10:01:37.658Z,33.28
2022-12-22T10:04:09.785Z,36.38
2022-12-22T10:07:02.685Z,34.95
2022-12-22T10:12:23.139Z,34.70
2022-12-22T10:14:52.236Z,36.55
2022-12-22T10:17:19.143Z,34.92
2022-12-22T10:19:47.765Z,34.58
2022-12-22T10:22:47.889Z,31.95
2022-12-22T10:28:49.379Z,28.98
2022-12-22T10:31:22.955Z,27.70
2022-12-22T10:33:52.784Z,27.35
2022-12-22T10:36:27.402Z,25.40
2022-12-22T10:39:02.792Z,26.00
2022-12-22T10:44:21.370Z,23.83
2022-12-22T10:46:53.420Z,24.23
2022-12-22T10:49:22.014Z,22.70
2022-12-22T10:52:09.577Z,18.50
2022-12-22T10:54:36.835Z,17.45
2022-12-22T10:57:06.788Z,16.90
2022-12-22T10:59:46.451Z,16.08
2022-12-22T11:02:35.319Z,16.08
2022-12-22T11:05:06.249Z,16.02
2022-12-22T11:07:44.558Z,15.77
2022-12-22T11:10:14.494Z,15.60
2022-12-22T11:13:11.835Z,16.00
2022-12-22T11:16:08.936Z,15.45
2022-12-22T11:19:03.937Z,15.50
2022-12-22T11:21:50.794Z,16.35
2022-12-22T11:24:29.600Z,16.33
2022-12-22T11:27:02.530Z,14.65
2022-12-22T11:30:01.900Z,14.35
2022-12-22T11:32:43.763Z,13.50
2022-12-22T11:35:40.280Z,14.20
2022-12-22T11:38:33.174Z,13.48
2022-12-22T11:41:19.005Z,12.75
2022-12-22T11:44:11.743Z,13.85
2022-12-22T11:47:26.407Z,11.88
2022-12-22T11:51:02.251Z,12.57
2022-12-22T11:53:22.285Z,12.65
2022-12-22T11:56:38.622Z,12.90
2022-12-22T11:59:42.909Z,12.87
2022-12-22T12:02:31.645Z,13.32
2022-12-22T12:04:58.752Z,12.23
2022-12-22T12:07:35.072Z,12.60
2022-12-22T12:10:06.541Z,12.32
2022-12-22T12:12:48.836Z,12.00
2022-12-22T12:15:34.266Z,12.13
2022-12-22T12:18:13.955Z,12.15
2022-12-22T12:20:48.355Z,12.77
2022-12-22T12:24:03.868Z,12.23
2022-12-22T12:26:41.596Z,12.35
2022-12-22T12:29:20.214Z,12.52
2022-12-22T12:31:54.135Z,14.23
2022-12-22T12:34:22.727Z,12.25
2022-12-22T12:37:26.369Z,12.27
2022-12-22T12:40:25.252Z,13.35
2022-12-22T12:42:54.048Z,12.77
2022-12-22T12:45:34.643Z,12.48
2022-12-22T12:48:20.441Z,13.05
2022-12-22T12:50:49.266Z,12.95
2022-12-22T12:53:17.860Z,11.48
2022-12-22T12:55:55.201Z,11.15
2022-12-22T12:58:37.761Z,10.98
2022-12-22T13:01:05.960Z,11.32
2022-12-22T13:06:51.756Z,11.00
2022-12-22T13:09:51.844Z,10.88
2022-12-22T13:12:37.754Z,10.55
2022-12-22T13:15:05.128Z,10.95
2022-12-22T13:17:38.159Z,10.27
2022-12-22T13:20:11.344Z,10.35
2022-12-22T13:22:38.529Z,9.75
2022-12-22T13:25:05.982Z,9.30
2022-12-22T13:27:33.033Z,8.93
2022-12-22T13:30:00.338Z,8.40
2022-12-22T13:32:34.245Z,8.77
2022-12-22T13:35:33.734Z,8.60
2022-12-22T13:38:02.016Z,9.05
2022-12-22T13:40:47.323Z,7.85
2022-12-22T13:43:17.877Z,8.27
2022-12-22T13:45:55.373Z,7.78
2022-12-22T13:48:30.601Z,7.97
2022-12-22T13:51:03.124Z,7.28
2022-12-22T13:56:25.990Z,8.02
2022-12-22T13:59:02.132Z,8.15
2022-12-22T14:01:29.869Z,7.95
2022-12-22T14:04:04.225Z,8.68
2022-12-22T14:06:38.879Z,8.05
2022-12-22T14:09:14.939Z,8.63
2022-12-22T14:11:51.061Z,9.43
2022-12-22T14:14:25.676Z,8.77
2022-12-22T14:16:54.667Z,8.75
2022-12-22T14:19:23.223Z,8.77
2022-12-22T14:21:58.828Z,9.27
2022-12-22T14:24:37.748Z,8.98
2022-12-22T14:27:05.973Z,8.75
2022-12-22T14:29:32.877Z,9.27
2022-12-22T14:32:02.751Z,8.98
2022-12-22T14:34:32.253Z,9.25
2022-12-22T14:37:00.033Z,8.52
2022-12-22T14:39:32.294Z,9.07
2022-12-22T14:42:02.609Z,9.45
2022-12-22T14:44:34.457Z,9.77
2022-12-22T14:47:19.612Z,9.93
2022-12-22T14:50:00.573Z,10.35
2022-12-22T14:52:49.341Z,9.75
2022-12-22T14:55:31.367Z,9.25
2022-12-22T14:58:10.271Z,9.00
2022-12-22T15:00:40.723Z,8.75
2022-12-22T15:03:32.811Z,8.07
2022-12-22T15:06:25.262Z,8.65
2022-12-22T15:08:53.532Z,8.65
2022-12-22T15:11:23.064Z,8.68
2022-12-22T15:13:51.619Z,8.25
2022-12-22T15:16:20.531Z,8.30
2022-12-22T15:18:48.647Z,7.13
2022-12-22T15:21:17.569Z,8.18
2022-12-22T15:23:44.611Z,7.57
2022-12-22T15:26:11.999Z,8.80
2022-12-22T15:28:39.349Z,7.43
2022-12-22T15:31:14.443Z,7.57
2022-12-22T15:33:42.249Z,7.93
2022-12-22T15:36:12.038Z,7.80
2022-12-22T15:38:39.801Z,7.75
2022-12-22T15:41:07.466Z,9.15
2022-12-22T15:46:24.848Z,10.25
2022-12-22T15:48:52.071Z,10.48
2022-12-22T15:51:28.288Z,10.48
2022-12-22T15:53:56.838Z,11.15
2022-12-22T15:56:26.623Z,10.25
2022-12-22T15:58:53.898Z,9.38
2022-12-22T16:01:20.853Z,8.93
2022-12-22T16:03:47.873Z,8.85
2022-12-22T16:06:17.212Z,8.48
2022-12-22T16:08:49.616Z,8.63
2022-12-22T16:11:18.102Z,9.35
2022-12-22T16:13:45.487Z,8.00
2022-12-22T16:16:12.727Z,8.38
2022-12-22T16:18:39.762Z,8.60
2022-12-22T16:21:19.909Z,9.82
2022-12-22T16:23:49.132Z,11.02
2022-12-22T16:26:20.515Z,9.55
2022-12-22T16:28:48.151Z,9.77
2022-12-22T16:31:18.203Z,10.40
2022-12-22T16:33:45.257Z,11.65
2022-12-22T16:36:12.273Z,11.27
2022-12-22T16:38:39.816Z,11.40
2022-12-22T16:41:17.045Z,12.52
2022-12-22T16:46:28.265Z,11.48
2022-12-22T16:48:59.953Z,10.85
2022-12-22T16:51:33.838Z,12.80
2022-12-22T16:54:02.495Z,13.20
2022-12-22T16:56:31.280Z,13.85
2022-12-22T16:58:59.222Z,13.20
2022-12-22T17:01:40.444Z,11.57
2022-12-22T17:04:12.582Z,11.50
2022-12-22T17:06:41.343Z,11.27
2022-12-22T17:09:16.202Z,12.60
2022-12-22T17:11:46.544Z,11.15
2022-12-22T17:14:39.376Z,11.50
2022-12-22T17:17:12.244Z,11.40
2022-12-22T17:19:39.796Z,10.15
2022-12-22T17:22:30.092Z,10.32
2022-12-22T17:25:01.366Z,10.88
2022-12-22T17:27:31.570Z,9.70
2022-12-22T17:30:05.207Z,10.20
2022-12-22T17:32:32.982Z,9.98
2022-12-22T17:35:02.941Z,9.48
2022-12-22T17:37:30.551Z,10.10
2022-12-22T17:40:01.968Z,10.05
2022-12-22T17:42:35.575Z,8.93
2022-12-22T17:45:03.248Z,9.05
2022-12-22T17:47:34.812Z,9.77
2022-12-22T17:50:07.968Z,7.60
2022-12-22T17:52:35.474Z,8.02
2022-12-22T17:55:05.213Z,7.90
2022-12-22T17:57:35.824Z,7.55
2022-12-22T18:00:03.614Z,8.35
2022-12-22T18:02:38.696Z,9.07
2022-12-22T18:05:06.070Z,8.00
2022-12-22T18:07:43.524Z,7.38
2022-12-22T18:10:31.688Z,7.10
2022-12-22T18:13:02.015Z,7.20
2022-12-22T18:15:32.574Z,7.28
2022-12-22T18:18:00.568Z,6.78
2022-12-22T18:20:29.576Z,7.53
2022-12-22T18:23:02.150Z,7.43
2022-12-22T18:25:33.696Z,6.05
2022-12-22T18:28:01.338Z,6.53
2022-12-22T18:30:30.226Z,6.72
2022-12-22T18:32:58.869Z,6.57
2022-12-22T18:35:29.472Z,6.75
2022-12-22T18:37:58.916Z,6.53
2022-12-22T18:40:38.636Z,6.63
2022-12-22T18:43:13.773Z,5.55
2022-12-22T18:45:41.608Z,7.13
2022-12-22T18:48:09.393Z,6.15
2022-12-22T18:50:37.092Z,6.28
2022-12-22T18:53:17.872Z,5.82
2022-12-22T18:55:46.061Z,6.35
2022-12-22T18:58:15.308Z,5.78
2022-12-22T19:00:43.780Z,5.85
2022-12-22T19:03:23.021Z,6.53
2022-12-22T19:05:50.822Z,7.57
2022-12-22T19:08:23.907Z,6.65
2022-12-22T19:10:55.958Z,6.57
2022-12-22T19:13:28.558Z,6.65
2022-12-22T19:15:57.306Z,6.13
2022-12-22T19:18:27.270Z,6.68
2022-12-22T19:20:59.158Z,6.20
2022-12-22T19:23:27.029Z,7.05
2022-12-22T19:26:02.219Z,7.43
2022-12-22T19:28:44.256Z,7.65
2022-12-22T19:31:23.142Z,8.30
2022-12-22T19:33:51.438Z,7.55
2022-12-22T19:36:27.180Z,8.00
2022-12-22T19:39:04.054Z,8.73
2022-12-22T19:41:35.108Z,8.30
2022-12-22T19:44:02.405Z,8.50
2022-12-22T19:46:33.387Z,9.20
2022-12-22T19:49:00.799Z,8.23
2022-12-22T19:51:27.669Z,10.18
2022-12-22T19:53:54.693Z,8.85
2022-12-22T19:56:25.560Z,9.65
2022-12-22T19:58:54.097Z,8.52
2022-12-22T20:01:21.469Z,8.93
2022-12-22T20:03:48.634Z,9.50
2022-12-22T20:06:15.467Z,8.90
2022-12-22T20:08:42.331Z,9.25
2022-12-22T20:11:15.002Z,9.73
2022-12-22T20:13:42.805Z,8.57
2022-12-22T20:16:13.775Z,9.88
2022-12-22T20:18:41.301Z,9.45
2022-12-22T20:21:15.930Z,10.23
2022-12-22T20:23:43.149Z,9.27
2022-12-22T20:26:16.252Z,9.32
2022-12-22T20:28:43.330Z,9.77
2022-12-22T20:31:14.320Z,10.05
2022-12-22T20:33:41.809Z,9.07
2022-12-22T20:36:31.761Z,9.57
2022-12-22T20:39:00.017Z,9.57
2022-12-22T20:41:27.475Z,9.80
2022-12-22T20:43:54.740Z,8.95
2022-12-22T20:46:25.188Z,9.60
2022-12-22T20:48:56.195Z,9.00
2022-12-22T20:51:25.736Z,9.93
2022-12-22T20:53:53.235Z,9.65
2022-12-22T20:56:29.871Z,9.45
2022-12-22T20:58:58.393Z,9.35
2022-12-22T21:01:25.485Z,10.50
2022-12-22T21:03:52.793Z,9.48
2022-12-22T21:06:37.589Z,9.68
2022-12-22T21:09:05.352Z,10.75
2022-12-22T21:11:32.296Z,9.93
2022-12-22T21:13:59.469Z,9.63
2022-12-22T21:16:29.972Z,10.25
2022-12-22T21:18:57.083Z,10.52
2022-12-22T21:21:24.205Z,10.70
2022-12-22T21:23:51.408Z,10.80
2022-12-22T21:26:42.784Z,11.02
2022-12-22T21:29:15.684Z,11.23
2022-12-22T21:31:42.629Z,10.95
2022-12-22T21:34:11.425Z,11.40
2022-12-22T21:36:39.956Z,10.10
2022-12-22T21:39:32.206Z,11.55
2022-12-22T21:42:03.163Z,10.50
2022-12-22T21:44:32.229Z,9.70
2022-12-22T21:46:59.784Z,11.27
2022-12-22T21:49:29.706Z,9.10
2022-12-22T21:51:56.802Z,9.93
2022-12-22T21:54:25.112Z,9.65
2022-12-22T21:56:53.576Z,9.57
2022-12-22T21:59:21.248Z,9.13
2022-12-22T22:01:49.293Z,10.23
2022-12-22T22:04:16.213Z,9.23
2022-12-22T22:06:43.095Z,9.07
2022-12-22T22:09:10.148Z,9.68
2022-12-22T22:11:57.034Z,8.93
2022-12-22T22:14:24.326Z,8.48
2022-12-22T22:16:51.484Z,8.77
2022-12-22T22:19:18.534Z,7.95
2022-12-22T22:21:46.302Z,8.63
2022-12-22T22:24:13.655Z,8.30
2022-12-22T22:26:40.650Z,8.27
2022-12-22T22:29:07.554Z,8.52
2022-12-22T22:31:34.552Z,8.07
2022-12-22T22:34:01.580Z,7.68
2022-12-22T22:36:28.474Z,7.15
2022-12-22T22:38:55.512Z,7.30
2022-12-22T22:41:22.367Z,7.45
2022-12-22T22:43:49.282Z,6.90
2022-12-22T22:46:16.131Z,8.25
2022-12-22T22:48:43.079Z,7.43
2022-12-22T22:51:10.656Z,6.05
2022-12-22T22:53:37.529Z,6.63
2022-12-22T22:56:04.733Z,6.22
2022-12-22T22:58:31.711Z,6.32
2022-12-22T23:01:10.351Z,6.50
2022-12-22T23:03:37.804Z,5.70
2022-12-22T23:06:10.602Z,5.50
2022-12-22T23:08:37.747Z,5.68
2022-12-22T23:11:05.769Z,6.32
2022-12-22T23:13:32.973Z,5.85
2022-12-22T23:16:02.411Z,5.75
2022-12-22T23:18:30.732Z,6.30
2022-12-22T23:20:58.700Z,6.38
2022-12-22T23:23:25.626Z,6.30
2022-12-22T23:25:52.572Z,5.50
2022-12-22T23:28:19.938Z,5.75
2022-12-22T23:30:49.581Z,5.97
2022-12-22T23:33:17.064Z,6.10
2022-12-22T23:35:47.379Z,6.35
2022-12-22T23:38:15.638Z,6.35
2022-12-22T23:40:52.186Z,6.78
2022-12-22T23:43:20.471Z,5.60
2022-12-22T23:45:47.353Z,5.97
2022-12-22T23:48:14.940Z,4.82
2022-12-22T23:50:42.014Z,5.47
2022-12-22T23:53:08.900Z,6.40
2022-12-22T23:55:35.744Z,7.18
2022-12-22T23:58:02.713Z,6.20
